Portersville, Indiana
Current Conditions -  °F | °C
As of 3:55 AM on Saturday 29 Nov 2014 (Local Time) from KHNB Reporting Station
Broken Clouds Broken Clouds  
Wind Chill: -1°   Ceiling: 4500
Heat Index:   Visibility: 10mi
Dew Point: -3°   Wind: 13mph
Humidity: 65%   Direction: 190°S
Pressure: 30"   Gusts: NA
Location:  38.4175°N, 86.9656°W
Report Text: KHNB 290955Z AUTO 19011KT 10SM BKN045 03/M03 A3000 RMK AO1
Loading
Personal Weather Stations






























Interactive Weather Map New forecast layout! Learn more

10-Day Weather Forecast

Advertisements
Track Severe Weather on mobile